createdAt,value
2023-11-12T00:02:24.333Z,77.73
2023-11-12T00:04:51.544Z,77.58
2023-11-12T00:07:18.773Z,76.89
2023-11-12T00:09:46.065Z,76.28
2023-11-12T00:12:13.227Z,75.51
2023-11-12T00:14:42.405Z,75.28
2023-11-12T00:17:10.594Z,74.83
2023-11-12T00:19:37.825Z,73.86
2023-11-12T00:22:06.952Z,74.27
2023-11-12T00:24:34.315Z,74.49
2023-11-12T00:27:01.448Z,75.36
2023-11-12T00:29:28.542Z,75.32
2023-11-12T00:31:55.736Z,76.00
2023-11-12T00:34:22.853Z,77.69
2023-11-12T00:36:50.738Z,77.89
2023-11-12T00:39:17.855Z,78.05
2023-11-12T00:41:45.222Z,78.36
2023-11-12T00:44:13.105Z,78.57
2023-11-12T00:46:42.418Z,78.70
2023-11-12T00:49:09.786Z,78.69
2023-11-12T00:51:37.297Z,78.76
2023-11-12T00:54:04.888Z,80.11
2023-11-12T00:56:32.025Z,79.28
2023-11-12T00:58:59.196Z,78.96
2023-11-12T01:01:26.638Z,79.17
2023-11-12T01:03:54.114Z,80.47
2023-11-12T01:06:21.484Z,80.79
2023-11-12T01:08:48.796Z,80.95
2023-11-12T01:11:16.714Z,80.30
2023-11-12T01:13:43.960Z,80.49
2023-11-12T01:16:11.395Z,81.65
2023-11-12T01:18:41.764Z,81.93
2023-11-12T01:21:10.332Z,82.60
2023-11-12T01:23:38.098Z,82.70
2023-11-12T01:26:08.054Z,83.11
2023-11-12T01:28:35.715Z,84.44
2023-11-12T01:31:03.485Z,84.55
2023-11-12T01:33:31.115Z,84.87
2023-11-12T01:35:58.801Z,85.18
2023-11-12T01:38:25.927Z,84.65
2023-11-12T01:40:55.855Z,84.18
2023-11-12T01:43:23.104Z,84.77
2023-11-12T01:45:50.946Z,85.04
2023-11-12T01:48:18.492Z,85.40
2023-11-12T01:50:45.927Z,85.46
2023-11-12T01:53:15.872Z,85.53
2023-11-12T01:55:45.463Z,85.76
2023-11-12T01:58:14.054Z,87.13
2023-11-12T02:00:41.696Z,88.34
2023-11-12T02:03:14.447Z,88.28
2023-11-12T02:05:43.637Z,87.86
2023-11-12T02:08:11.168Z,88.66
2023-11-12T02:10:38.604Z,89.17
2023-11-12T02:13:06.819Z,88.79
2023-11-12T02:15:35.890Z,88.74
2023-11-12T02:18:03.603Z,88.96
2023-11-12T02:20:31.039Z,89.92
2023-11-12T02:22:58.247Z,90.01
2023-11-12T02:25:25.473Z,89.99
2023-11-12T02:27:52.653Z,90.21
2023-11-12T02:30:20.521Z,89.83
2023-11-12T02:32:48.900Z,89.63
2023-11-12T02:35:16.519Z,89.89
2023-11-12T02:37:43.690Z,91.10
2023-11-12T02:40:13.528Z,91.42
2023-11-12T02:42:40.962Z,91.96
2023-11-12T02:45:09.802Z,91.11
2023-11-12T02:47:37.172Z,90.51
2023-11-12T02:50:28.822Z,90.54
2023-11-12T02:52:56.083Z,91.02
2023-11-12T02:55:23.203Z,91.06
2023-11-12T02:57:50.322Z,89.95
2023-11-12T03:00:17.951Z,90.27
2023-11-12T03:02:48.075Z,90.07
2023-11-12T03:05:15.860Z,90.68
2023-11-12T03:07:43.375Z,91.42
2023-11-12T03:10:10.696Z,92.10
2023-11-12T03:12:39.397Z,92.33
2023-11-12T03:15:08.236Z,92.74
2023-11-12T03:17:35.865Z,93.57
2023-11-12T03:20:05.704Z,94.26
2023-11-12T03:22:34.740Z,93.94
2023-11-12T03:25:03.202Z,93.97
2023-11-12T03:27:34.417Z,94.19
2023-11-12T03:30:01.817Z,94.24
2023-11-12T03:32:32.267Z,94.37
2023-11-12T03:35:02.023Z,94.25
2023-11-12T03:37:31.644Z,94.76
2023-11-12T03:39:58.840Z,94.31
2023-11-12T03:42:25.982Z,93.89
2023-11-12T03:44:53.166Z,93.85
2023-11-12T03:47:20.713Z,93.70
2023-11-12T03:49:47.857Z,91.42
2023-11-12T03:52:15.711Z,89.77
2023-11-12T03:54:43.286Z,88.48
2023-11-12T03:57:10.880Z,88.00
2023-11-12T03:59:38.240Z,86.99
2023-11-12T04:02:06.324Z,86.50
2023-11-12T04:04:34.195Z,86.02
2023-11-12T04:07:01.598Z,85.21
2023-11-12T04:09:28.899Z,84.96
2023-11-12T04:11:56.190Z,84.76
2023-11-12T04:14:24.409Z,84.35
2023-11-12T04:16:51.648Z,84.29
2023-11-12T04:19:19.059Z,84.08
2023-11-12T04:21:48.237Z,84.01
2023-11-12T04:24:15.400Z,83.92
2023-11-12T04:26:42.747Z,83.73
2023-11-12T04:29:10.410Z,83.58
2023-11-12T04:31:37.949Z,82.96
2023-11-12T04:34:05.154Z,82.53
2023-11-12T04:36:36.652Z,83.01
2023-11-12T04:39:05.101Z,83.38
2023-11-12T04:41:32.820Z,84.34
2023-11-12T04:44:00.625Z,85.26
2023-11-12T04:46:29.285Z,85.95
2023-11-12T04:48:56.516Z,86.97
2023-11-12T04:51:24.048Z,88.44
2023-11-12T04:53:54.370Z,88.78
2023-11-12T04:56:25.335Z,90.04
2023-11-12T04:58:53.115Z,90.42
2023-11-12T05:01:26.140Z,90.93
2023-11-12T05:03:58.200Z,91.47
2023-11-12T05:06:30.842Z,91.39
2023-11-12T05:08:58.486Z,91.65
2023-11-12T05:11:26.657Z,92.15
2023-11-12T05:13:54.614Z,92.66
2023-11-12T05:16:22.921Z,92.87
2023-11-12T05:18:50.188Z,92.71
2023-11-12T05:21:19.082Z,92.60
2023-11-12T05:23:46.227Z,92.63
2023-11-12T05:26:15.055Z,92.54
2023-11-12T05:28:42.380Z,92.04
2023-11-12T05:31:11.632Z,92.18
2023-11-12T05:33:39.648Z,92.14
2023-11-12T05:36:07.150Z,91.50
2023-11-12T05:38:35.684Z,91.02
2023-11-12T05:41:03.076Z,91.07
2023-11-12T05:43:30.144Z,91.02
2023-11-12T05:45:57.248Z,91.27
2023-11-12T05:48:24.476Z,91.11
2023-11-12T05:50:51.584Z,90.83
2023-11-12T05:53:20.160Z,88.34
2023-11-12T05:55:47.264Z,88.62
2023-11-12T05:58:14.657Z,89.14
2023-11-12T06:00:41.844Z,90.03
2023-11-12T06:03:09.028Z,90.38
2023-11-12T06:05:36.177Z,90.50
2023-11-12T06:08:04.942Z,90.52
2023-11-12T06:10:32.754Z,90.97
2023-11-12T06:12:59.798Z,91.25
2023-11-12T06:15:28.416Z,92.82
2023-11-12T06:17:56.209Z,92.99
2023-11-12T06:20:24.781Z,93.01
2023-11-12T06:22:51.839Z,94.08
2023-11-12T06:25:19.025Z,94.26
2023-11-12T06:27:48.616Z,94.45
2023-11-12T06:30:15.805Z,94.97
2023-11-12T06:32:44.081Z,95.06
2023-11-12T06:35:11.324Z,94.96
2023-11-12T06:37:38.654Z,95.22
2023-11-12T06:40:08.068Z,95.04
2023-11-12T06:42:35.301Z,94.58
2023-11-12T06:45:02.523Z,94.13
2023-11-12T06:47:31.422Z,93.90
2023-11-12T06:49:58.783Z,93.84
2023-11-12T06:52:25.981Z,93.94
2023-11-12T06:54:53.302Z,93.91
2023-11-12T06:57:20.592Z,93.81
2023-11-12T06:59:48.000Z,93.74
2023-11-12T07:02:16.541Z,93.91
2023-11-12T07:04:43.765Z,93.94
2023-11-12T07:07:16.666Z,94.33
2023-11-12T07:09:47.189Z,94.00
2023-11-12T07:12:16.488Z,93.83
2023-11-12T07:14:44.288Z,93.70
2023-11-12T07:17:11.793Z,93.56
2023-11-12T07:19:39.221Z,94.07
2023-11-12T07:22:06.391Z,94.65
2023-11-12T07:24:38.620Z,95.03
2023-11-12T07:27:05.882Z,95.25
2023-11-12T07:29:33.095Z,95.24
2023-11-12T07:32:00.327Z,95.50
2023-11-12T07:34:27.692Z,95.68
2023-11-12T07:36:54.886Z,96.10
2023-11-12T07:39:21.990Z,96.45
2023-11-12T07:41:49.203Z,95.98
2023-11-12T07:44:23.639Z,95.07
2023-11-12T07:46:51.275Z,93.91
2023-11-12T07:49:18.663Z,93.18
2023-11-12T07:51:45.886Z,92.78
2023-11-12T07:54:13.290Z,92.63
2023-11-12T07:56:42.539Z,92.27
2023-11-12T07:59:10.378Z,92.22
2023-11-12T08:01:37.757Z,92.31
2023-11-12T08:04:05.156Z,92.43
2023-11-12T08:06:32.337Z,92.25
2023-11-12T08:09:01.265Z,92.01
2023-11-12T08:11:29.804Z,91.95
2023-11-12T08:13:57.103Z,91.87
2023-11-12T08:16:25.723Z,92.40
2023-11-12T08:18:54.658Z,93.62
2023-11-12T08:21:22.384Z,94.60
2023-11-12T08:23:49.851Z,95.17
2023-11-12T08:26:17.019Z,95.44
2023-11-12T08:28:44.184Z,96.45
2023-11-12T08:31:11.263Z,96.83
2023-11-12T08:33:39.099Z,97.10
2023-11-12T08:36:06.620Z,96.61
2023-11-12T08:38:35.886Z,96.29
2023-11-12T08:41:03.809Z,95.93
2023-11-12T08:43:30.845Z,95.97
2023-11-12T08:45:58.174Z,96.14
2023-11-12T08:48:32.610Z,95.56
2023-11-12T08:51:00.469Z,96.01
2023-11-12T08:53:28.795Z,97.63
2023-11-12T08:55:56.149Z,98.39
2023-11-12T08:58:24.411Z,99.18
2023-11-12T09:00:51.941Z,100.00
2023-11-12T09:03:19.241Z,100.00
2023-11-12T09:05:46.730Z,100.00
2023-11-12T09:08:14.088Z,100.00
2023-11-12T09:10:42.544Z,100.00
2023-11-12T09:13:10.804Z,100.00
2023-11-12T09:15:39.060Z,100.00
2023-11-12T09:18:06.851Z,100.00
2023-11-12T09:20:34.199Z,100.00
2023-11-12T09:23:01.311Z,100.00
2023-11-12T09:25:28.917Z,100.00
2023-11-12T09:27:57.219Z,100.00
2023-11-12T09:30:25.004Z,100.00
2023-11-12T09:32:52.318Z,100.00
2023-11-12T09:35:20.013Z,100.00
2023-11-12T09:37:47.202Z,100.00
2023-11-12T09:40:14.722Z,100.00
2023-11-12T09:42:49.525Z,100.00
2023-11-12T09:45:19.753Z,100.00
2023-11-12T09:47:56.047Z,100.00
2023-11-12T09:50:24.981Z,100.00
2023-11-12T09:52:53.893Z,100.00
2023-11-12T09:55:21.966Z,100.00
2023-11-12T09:57:53.124Z,100.00
2023-11-12T10:00:20.778Z,100.00
2023-11-12T10:02:48.373Z,100.00
2023-11-12T10:05:16.529Z,100.00
2023-11-12T10:07:45.791Z,100.00
2023-11-12T10:10:32.194Z,100.00
2023-11-12T10:12:59.828Z,100.00
2023-11-12T10:15:29.350Z,100.00
2023-11-12T10:18:01.009Z,100.00
2023-11-12T10:20:32.464Z,100.00
2023-11-12T10:22:59.843Z,100.00
2023-11-12T10:25:43.981Z,100.00
2023-11-12T10:28:13.015Z,100.00
2023-11-12T10:30:41.529Z,100.00
2023-11-12T10:33:25.338Z,100.00
2023-11-12T10:35:53.531Z,100.00
2023-11-12T10:38:21.346Z,100.00
2023-11-12T10:40:59.398Z,100.00
2023-11-12T10:43:26.919Z,100.00
2023-11-12T10:45:59.000Z,100.00
2023-11-12T10:48:37.351Z,100.00
2023-11-12T10:51:07.204Z,100.00
2023-11-12T10:53:36.321Z,99.81
2023-11-12T10:56:06.715Z,100.00
2023-11-12T10:58:36.524Z,100.00
2023-11-12T11:01:06.272Z,100.00
2023-11-12T11:03:35.556Z,100.00
2023-11-12T11:06:06.734Z,100.00
2023-11-12T11:08:37.489Z,100.00
2023-11-12T11:11:09.706Z,100.00
2023-11-12T11:13:39.238Z,100.00
2023-11-12T11:16:06.990Z,100.00
2023-11-12T11:18:35.187Z,99.44
2023-11-12T11:21:05.551Z,99.12
2023-11-12T11:23:53.501Z,99.72
2023-11-12T11:26:30.319Z,99.34
2023-11-12T11:29:06.706Z,97.90
2023-11-12T11:31:34.115Z,97.45
2023-11-12T11:34:02.450Z,96.88
2023-11-12T11:36:31.033Z,96.23
2023-11-12T11:39:08.952Z,96.06
2023-11-12T11:41:36.125Z,94.86
2023-11-12T11:44:45.745Z,94.10
2023-11-12T11:47:15.777Z,93.46
2023-11-12T11:49:47.568Z,92.45
2023-11-12T11:52:31.223Z,92.95
2023-11-12T11:55:13.406Z,93.09
2023-11-12T11:57:52.037Z,93.02
2023-11-12T12:00:19.485Z,93.15
2023-11-12T12:02:47.046Z,93.83
2023-11-12T12:05:26.779Z,93.70
2023-11-12T12:08:01.521Z,92.93
2023-11-12T12:10:29.896Z,92.86
2023-11-12T12:12:57.685Z,93.29
2023-11-12T12:15:25.117Z,93.43
2023-11-12T12:17:52.422Z,92.60
2023-11-12T12:20:19.807Z,91.59
2023-11-12T12:22:48.166Z,90.87
2023-11-12T12:25:15.381Z,91.09
2023-11-12T12:27:53.631Z,91.53
2023-11-12T12:30:20.888Z,90.00
2023-11-12T12:32:47.982Z,88.02
2023-11-12T12:35:24.747Z,85.68
2023-11-12T12:37:52.251Z,86.03
2023-11-12T12:40:29.367Z,87.33
2023-11-12T12:42:57.112Z,86.70
2023-11-12T12:45:24.458Z,86.54
2023-11-12T12:47:52.127Z,86.31
2023-11-12T12:50:27.520Z,86.01
2023-11-12T12:53:15.357Z,86.25
2023-11-12T12:55:45.103Z,85.46
2023-11-12T12:58:13.251Z,85.24
2023-11-12T13:00:42.446Z,84.94
2023-11-12T13:03:24.871Z,84.72
2023-11-12T13:05:52.478Z,83.49
2023-11-12T13:08:20.799Z,83.41
2023-11-12T13:10:50.425Z,82.81
2023-11-12T13:13:18.521Z,83.39
2023-11-12T13:15:48.200Z,82.90
2023-11-12T13:18:15.616Z,83.37
2023-11-12T13:20:45.438Z,82.88
2023-11-12T13:23:12.541Z,82.83
2023-11-12T13:25:39.850Z,82.96
2023-11-12T13:28:10.142Z,83.75
2023-11-12T13:30:40.168Z,83.82
2023-11-12T13:33:08.591Z,83.74
2023-11-12T13:35:36.054Z,83.09
2023-11-12T13:38:03.396Z,81.92
2023-11-12T13:40:34.539Z,82.23
2023-11-12T13:43:05.019Z,81.30
2023-11-12T13:45:32.412Z,81.00
2023-11-12T13:47:59.632Z,80.64
2023-11-12T13:50:29.180Z,81.26
2023-11-12T13:53:00.057Z,80.69
2023-11-12T13:55:30.510Z,80.95
2023-11-12T13:58:00.642Z,80.27
2023-11-12T14:00:31.705Z,79.32
2023-11-12T14:03:02.193Z,79.89
2023-11-12T14:05:29.978Z,79.94
2023-11-12T14:07:57.806Z,79.12
2023-11-12T14:10:26.558Z,79.26
2023-11-12T14:12:54.276Z,78.34
2023-11-12T14:15:23.581Z,78.85
2023-11-12T14:17:50.924Z,78.34
2023-11-12T14:20:27.982Z,79.04
2023-11-12T14:22:56.401Z,80.52
2023-11-12T14:25:24.944Z,81.17
2023-11-12T14:27:53.755Z,80.76
2023-11-12T14:30:21.306Z,80.26
2023-11-12T14:32:48.980Z,80.74
2023-11-12T14:35:17.281Z,81.29
2023-11-12T14:37:45.096Z,81.64
2023-11-12T14:40:16.248Z,80.52
2023-11-12T14:42:47.068Z,79.68
2023-11-12T14:45:25.175Z,80.15
2023-11-12T14:47:57.346Z,80.14
2023-11-12T14:50:24.643Z,79.90
2023-11-12T14:52:53.416Z,80.27
2023-11-12T14:55:26.053Z,81.06
2023-11-12T14:57:58.357Z,81.62
2023-11-12T15:00:29.841Z,81.27
2023-11-12T15:03:01.925Z,81.40
2023-11-12T15:05:29.813Z,81.71
2023-11-12T15:07:57.276Z,82.40
2023-11-12T15:10:27.932Z,82.85
2023-11-12T15:12:55.195Z,82.59
2023-11-12T15:15:23.032Z,83.18
2023-11-12T15:17:53.204Z,82.74
2023-11-12T15:20:21.856Z,82.63
2023-11-12T15:22:51.643Z,83.17
2023-11-12T15:25:20.085Z,83.28
2023-11-12T15:27:50.575Z,84.20
2023-11-12T15:30:19.238Z,84.94
2023-11-12T15:32:46.986Z,85.18
2023-11-12T15:35:15.738Z,85.57
2023-11-12T15:37:44.099Z,85.80
2023-11-12T15:40:24.531Z,85.37
2023-11-12T15:42:55.546Z,85.42
2023-11-12T15:45:26.553Z,85.52
2023-11-12T15:47:54.424Z,86.24
2023-11-12T15:50:23.831Z,87.11
2023-11-12T15:52:51.877Z,87.14
2023-11-12T15:55:19.261Z,87.39
2023-11-12T15:57:47.254Z,87.99
2023-11-12T16:00:15.723Z,88.54
2023-11-12T16:02:45.680Z,89.06
2023-11-12T16:05:17.580Z,90.32
2023-11-12T16:07:45.347Z,90.44
2023-11-12T16:10:15.787Z,90.81
2023-11-12T16:12:43.619Z,91.23
2023-11-12T16:15:16.861Z,91.52
2023-11-12T16:17:46.732Z,91.53
2023-11-12T16:20:14.404Z,92.08
2023-11-12T16:22:42.099Z,92.88
2023-11-12T16:25:13.147Z,94.15
2023-11-12T16:27:40.935Z,94.10
2023-11-12T16:30:08.853Z,94.37
2023-11-12T16:32:39.018Z,94.45
2023-11-12T16:35:07.499Z,94.92
2023-11-12T16:37:34.790Z,94.75
2023-11-12T16:40:02.344Z,94.81
2023-11-12T16:42:32.125Z,94.68
2023-11-12T16:45:00.492Z,94.94
2023-11-12T16:47:27.692Z,95.01
2023-11-12T16:49:55.412Z,95.94
2023-11-12T16:52:23.168Z,97.60
2023-11-12T16:54:50.706Z,96.88
2023-11-12T16:57:18.578Z,96.45
2023-11-12T16:59:46.862Z,97.14
2023-11-12T17:02:15.368Z,98.34
2023-11-12T17:04:43.457Z,98.27
2023-11-12T17:07:12.622Z,98.76
2023-11-12T17:09:42.297Z,99.99
2023-11-12T17:12:14.637Z,99.98
2023-11-12T17:14:45.600Z,100.00
2023-11-12T17:17:13.139Z,100.00
2023-11-12T17:19:40.794Z,99.93
2023-11-12T17:22:11.447Z,99.91
2023-11-12T17:24:38.877Z,100.00
2023-11-12T17:27:07.485Z,100.00
2023-11-12T17:29:35.261Z,100.00
2023-11-12T17:32:02.642Z,100.00
2023-11-12T17:34:32.054Z,100.00
2023-11-12T17:37:00.650Z,100.00
2023-11-12T17:39:28.000Z,100.00
2023-11-12T17:41:55.398Z,100.00
2023-11-12T17:44:22.911Z,100.00
2023-11-12T17:46:50.681Z,100.00
2023-11-12T17:49:18.262Z,100.00
2023-11-12T17:51:47.622Z,100.00
2023-11-12T17:54:17.154Z,100.00
2023-11-12T17:56:47.528Z,100.00
2023-11-12T17:59:14.768Z,100.00
2023-11-12T18:01:42.084Z,99.75
2023-11-12T18:04:09.650Z,98.92
2023-11-12T18:06:39.063Z,99.07
2023-11-12T18:09:06.367Z,99.28
2023-11-12T18:11:35.380Z,99.40
2023-11-12T18:14:05.512Z,99.13
2023-11-12T18:16:36.099Z,99.22
2023-11-12T18:19:03.578Z,99.41
2023-11-12T18:21:31.040Z,99.19
2023-11-12T18:23:58.540Z,99.61
2023-11-12T18:26:25.831Z,99.32
2023-11-12T18:28:53.500Z,99.25
2023-11-12T18:31:25.428Z,99.26
2023-11-12T18:33:53.595Z,98.95
2023-11-12T18:36:24.465Z,98.96
2023-11-12T18:38:54.759Z,98.99
2023-11-12T18:41:30.487Z,97.19
2023-11-12T18:43:57.876Z,97.55
2023-11-12T18:46:25.488Z,97.89
2023-11-12T18:48:55.342Z,98.73
2023-11-12T18:51:24.390Z,99.29
2023-11-12T18:53:58.931Z,99.45
2023-11-12T18:56:26.697Z,100.00
2023-11-12T18:58:57.196Z,99.91
2023-11-12T19:01:27.499Z,100.00
2023-11-12T19:03:55.032Z,100.00
2023-11-12T19:06:26.124Z,99.82
2023-11-12T19:09:01.912Z,100.00
2023-11-12T19:11:31.461Z,99.93
2023-11-12T19:14:08.998Z,100.00
2023-11-12T19:16:38.679Z,99.80
2023-11-12T19:19:07.274Z,96.87
2023-11-12T19:21:40.248Z,95.88
2023-11-12T19:24:11.280Z,97.35
2023-11-12T19:26:38.635Z,97.46
2023-11-12T19:29:05.773Z,97.67
2023-11-12T19:31:34.280Z,97.78
2023-11-12T19:34:02.943Z,97.50
2023-11-12T19:36:30.337Z,97.02
2023-11-12T19:38:57.512Z,96.38
2023-11-12T19:41:25.655Z,95.20
2023-11-12T19:43:54.598Z,94.87
2023-11-12T19:46:22.816Z,95.78
2023-11-12T19:48:51.390Z,96.50
2023-11-12T19:51:18.713Z,96.91
2023-11-12T19:53:46.985Z,96.64
2023-11-12T19:56:14.224Z,96.14
2023-11-12T19:58:42.012Z,96.57
2023-11-12T20:01:09.320Z,96.90
2023-11-12T20:03:36.576Z,97.65
2023-11-12T20:06:03.929Z,97.28
2023-11-12T20:08:31.345Z,97.28
2023-11-12T20:11:01.578Z,96.78
2023-11-12T20:13:28.919Z,98.25
2023-11-12T20:15:58.778Z,98.44
2023-11-12T20:18:26.144Z,99.22
2023-11-12T20:20:55.154Z,98.24
2023-11-12T20:23:22.657Z,98.46
2023-11-12T20:25:49.958Z,98.23
2023-11-12T20:28:17.418Z,98.26
2023-11-12T20:30:45.915Z,98.43
2023-11-12T20:33:17.483Z,98.41
2023-11-12T20:35:48.401Z,97.96
2023-11-12T20:38:16.573Z,98.55
2023-11-12T20:40:44.943Z,99.25
2023-11-12T20:43:12.689Z,98.92
2023-11-12T20:45:41.957Z,99.30
2023-11-12T20:48:09.350Z,99.34
2023-11-12T20:50:40.076Z,99.18
2023-11-12T20:53:11.998Z,99.46
2023-11-12T20:55:40.574Z,100.00
2023-11-12T20:58:08.240Z,100.00
2023-11-12T21:00:37.978Z,100.00
2023-11-12T21:03:06.146Z,100.00
2023-11-12T21:05:33.347Z,100.00
2023-11-12T21:08:00.677Z,100.00
2023-11-12T21:10:33.571Z,100.00
2023-11-12T21:13:03.573Z,100.00
2023-11-12T21:15:30.837Z,100.00
2023-11-12T21:17:58.098Z,100.00
2023-11-12T21:20:26.035Z,100.00
2023-11-12T21:22:53.454Z,100.00
2023-11-12T21:25:21.749Z,100.00
2023-11-12T21:27:49.213Z,100.00
2023-11-12T21:30:22.471Z,100.00
2023-11-12T21:32:49.850Z,100.00
2023-11-12T21:35:20.745Z,100.00
2023-11-12T21:37:48.204Z,100.00
2023-11-12T21:40:15.569Z,100.00
2023-11-12T21:42:43.930Z,99.74
2023-11-12T21:45:11.679Z,99.52
2023-11-12T21:47:40.924Z,100.00
2023-11-12T21:50:08.586Z,100.00
2023-11-12T21:52:36.503Z,100.00
2023-11-12T21:55:05.014Z,100.00
2023-11-12T21:57:32.252Z,100.00
2023-11-12T21:59:59.416Z,100.00
2023-11-12T22:02:27.046Z,100.00
2023-11-12T22:04:54.323Z,100.00
2023-11-12T22:07:24.791Z,100.00
2023-11-12T22:09:54.950Z,100.00
2023-11-12T22:12:22.133Z,99.05
2023-11-12T22:14:49.925Z,100.00
2023-11-12T22:17:17.131Z,100.00
2023-11-12T22:19:44.856Z,100.00
2023-11-12T22:22:13.503Z,100.00
2023-11-12T22:24:41.339Z,100.00
2023-11-12T22:27:08.524Z,100.00
2023-11-12T22:29:35.677Z,100.00
2023-11-12T22:32:02.877Z,100.00
2023-11-12T22:34:32.746Z,99.58
2023-11-12T22:37:00.069Z,100.00
2023-11-12T22:39:27.232Z,100.00
2023-11-12T22:41:54.379Z,100.00
2023-11-12T22:44:21.515Z,100.00
2023-11-12T22:46:49.166Z,100.00
2023-11-12T22:49:16.557Z,99.22
2023-11-12T22:51:43.754Z,99.19
2023-11-12T22:54:12.463Z,99.21
2023-11-12T22:56:39.536Z,100.00
2023-11-12T22:59:06.781Z,100.00
2023-11-12T23:01:33.988Z,100.00
2023-11-12T23:04:01.113Z,100.00
2023-11-12T23:06:28.653Z,100.00
2023-11-12T23:08:58.265Z,99.08
2023-11-12T23:11:29.890Z,99.43
2023-11-12T23:13:57.246Z,98.13
2023-11-12T23:16:27.518Z,98.92
2023-11-12T23:18:54.956Z,99.68
2023-11-12T23:21:22.226Z,100.00
2023-11-12T23:23:49.379Z,100.00
2023-11-12T23:26:16.536Z,100.00
2023-11-12T23:28:43.688Z,100.00
2023-11-12T23:31:10.794Z,100.00
2023-11-12T23:33:38.271Z,100.00
2023-11-12T23:36:06.096Z,100.00
2023-11-12T23:38:33.350Z,100.00
2023-11-12T23:41:00.667Z,100.00
2023-11-12T23:43:27.754Z,100.00
2023-11-12T23:45:54.914Z,100.00
2023-11-12T23:48:22.063Z,100.00
2023-11-12T23:50:49.185Z,100.00
2023-11-12T23:53:16.212Z,100.00
2023-11-12T23:55:44.877Z,100.00
2023-11-12T23:58:12.601Z,100.00
